createdAt,value
2023-02-27T00:02:25.346Z,27.75
2023-02-27T00:04:52.271Z,28.77
2023-02-27T00:07:18.733Z,28.02
2023-02-27T00:09:45.161Z,19.95
2023-02-27T00:12:12.210Z,24.20
2023-02-27T00:14:38.831Z,25.67
2023-02-27T00:17:05.261Z,21.63
2023-02-27T00:19:31.814Z,26.42
2023-02-27T00:21:58.253Z,24.95
2023-02-27T00:24:24.738Z,25.38
2023-02-27T00:26:51.159Z,22.08
2023-02-27T00:29:20.334Z,29.27
2023-02-27T00:31:46.846Z,23.77
2023-02-27T00:34:13.500Z,36.40
2023-02-27T00:36:40.127Z,26.13
2023-02-27T00:39:06.671Z,22.80
2023-02-27T00:41:33.138Z,25.67
2023-02-27T00:43:59.626Z,23.50
2023-02-27T00:46:26.114Z,23.17
2023-02-27T00:48:52.865Z,19.65
2023-02-27T00:51:20.211Z,22.58
2023-02-27T00:53:46.711Z,22.40
2023-02-27T00:56:13.406Z,29.55
2023-02-27T00:58:39.838Z,26.48
2023-02-27T01:01:06.457Z,21.23
2023-02-27T01:03:33.056Z,23.30
2023-02-27T01:05:59.496Z,24.98
2023-02-27T01:08:25.952Z,19.63
2023-02-27T01:10:55.649Z,21.23
2023-02-27T01:13:22.632Z,21.83
2023-02-27T01:15:49.778Z,30.33
2023-02-27T01:18:16.220Z,20.88
2023-02-27T01:20:43.127Z,18.98
2023-02-27T01:23:09.534Z,28.85
2023-02-27T01:25:35.950Z,23.38
2023-02-27T01:28:02.374Z,23.33
2023-02-27T01:30:28.891Z,26.15
2023-02-27T01:32:55.380Z,22.33
2023-02-27T01:35:21.807Z,25.77
2023-02-27T01:37:48.259Z,27.15
2023-02-27T01:40:14.867Z,19.58
2023-02-27T01:42:41.356Z,20.52
2023-02-27T01:45:27.734Z,21.75
2023-02-27T01:48:03.912Z,25.83
2023-02-27T01:50:31.617Z,20.60
2023-02-27T01:53:01.350Z,23.50
2023-02-27T01:55:32.031Z,19.13
2023-02-27T01:58:00.162Z,23.85
2023-02-27T02:00:27.375Z,31.50
2023-02-27T02:03:07.863Z,23.35
2023-02-27T02:05:34.515Z,38.17
2023-02-27T02:08:01.328Z,24.50
2023-02-27T02:10:29.465Z,29.90
2023-02-27T02:12:56.588Z,26.35
2023-02-27T02:15:29.928Z,24.75
2023-02-27T02:18:20.066Z,19.20
2023-02-27T02:24:15.483Z,20.20
2023-02-27T02:27:03.859Z,25.15
2023-02-27T02:29:52.000Z,32.33
2023-02-27T02:32:41.359Z,23.45
2023-02-27T02:35:45.498Z,18.25
2023-02-27T02:38:24.198Z,24.10
2023-02-27T02:41:01.437Z,27.08
2023-02-27T02:43:38.209Z,26.92
2023-02-27T02:46:16.424Z,26.17
2023-02-27T02:48:58.374Z,21.60
2023-02-27T02:51:30.537Z,25.90
2023-02-27T02:54:04.930Z,20.88
2023-02-27T02:56:56.855Z,21.23
2023-02-27T02:59:32.282Z,21.63
2023-02-27T03:02:04.737Z,21.98
2023-02-27T03:04:40.477Z,26.55
2023-02-27T03:07:13.817Z,27.75
2023-02-27T03:09:49.895Z,22.55
2023-02-27T03:12:21.463Z,29.65
2023-02-27T03:14:59.781Z,20.02
2023-02-27T03:17:47.239Z,23.77
2023-02-27T03:20:24.783Z,25.98
2023-02-27T03:22:56.812Z,19.45
2023-02-27T03:25:27.168Z,24.95
2023-02-27T03:28:07.372Z,22.33
2023-02-27T03:31:00.867Z,27.90
2023-02-27T03:33:35.127Z,28.38
2023-02-27T03:36:21.149Z,26.02
2023-02-27T03:39:06.642Z,23.58
2023-02-27T03:41:37.780Z,22.83
2023-02-27T03:44:46.463Z,25.00
2023-02-27T03:47:15.864Z,22.27
2023-02-27T03:49:42.363Z,20.88
2023-02-27T03:52:09.116Z,22.77
2023-02-27T03:54:39.654Z,26.80
2023-02-27T03:57:08.936Z,26.63
2023-02-27T03:59:37.957Z,33.72
2023-02-27T04:02:04.668Z,29.52
2023-02-27T04:04:32.790Z,42.00
2023-02-27T04:07:24.505Z,31.77
2023-02-27T04:10:14.995Z,25.83
2023-02-27T04:12:59.654Z,26.25
2023-02-27T04:15:41.160Z,27.67
2023-02-27T04:18:29.075Z,18.88
2023-02-27T04:21:36.993Z,20.33
2023-02-27T04:24:32.678Z,27.35
2023-02-27T04:27:11.887Z,24.42
2023-02-27T04:29:57.378Z,26.37
2023-02-27T04:32:43.374Z,27.15
2023-02-27T04:35:20.535Z,25.10
2023-02-27T04:38:02.398Z,22.33
2023-02-27T04:40:39.555Z,30.23
2023-02-27T04:43:10.277Z,23.42
2023-02-27T04:45:41.266Z,24.17
2023-02-27T04:48:16.699Z,22.70
2023-02-27T04:50:51.821Z,27.92
2023-02-27T04:53:24.474Z,32.10
2023-02-27T04:56:04.740Z,24.60
2023-02-27T04:58:41.997Z,23.15
2023-02-27T05:01:14.987Z,24.73
2023-02-27T05:03:47.642Z,25.88
2023-02-27T05:06:17.236Z,23.65
2023-02-27T05:08:58.949Z,22.75
2023-02-27T05:11:43.574Z,24.92
2023-02-27T05:14:28.412Z,21.48
2023-02-27T05:17:03.315Z,24.00
2023-02-27T05:19:32.405Z,24.52
2023-02-27T05:21:58.752Z,25.77
2023-02-27T05:24:44.455Z,23.75
2023-02-27T05:27:25.623Z,20.40
2023-02-27T05:29:55.649Z,22.58
2023-02-27T05:35:19.878Z,21.25
2023-02-27T05:38:09.952Z,19.05
2023-02-27T05:43:16.836Z,22.35
2023-02-27T05:45:46.871Z,21.38
2023-02-27T05:50:52.934Z,21.10
2023-02-27T05:53:22.053Z,22.50
2023-02-27T05:55:54.397Z,21.07
2023-02-27T05:58:32.567Z,23.80
2023-02-27T06:01:01.972Z,29.50
2023-02-27T06:03:31.779Z,27.88
2023-02-27T06:06:04.945Z,32.65
2023-02-27T06:08:31.750Z,29.02
2023-02-27T06:10:58.372Z,23.85
2023-02-27T06:13:26.238Z,23.75
2023-02-27T06:15:53.304Z,25.83
2023-02-27T06:18:20.313Z,27.05
2023-02-27T06:20:47.316Z,23.88
2023-02-27T06:23:13.994Z,25.98
2023-02-27T06:25:42.338Z,25.02
2023-02-27T06:28:10.209Z,22.30
2023-02-27T06:30:37.066Z,23.05
2023-02-27T06:33:04.299Z,28.05
2023-02-27T06:35:31.073Z,25.38
2023-02-27T06:37:57.749Z,27.60
2023-02-27T06:40:24.456Z,25.35
2023-02-27T06:42:51.082Z,22.30
2023-02-27T06:45:18.021Z,31.45
2023-02-27T06:47:44.829Z,25.50
2023-02-27T06:50:14.311Z,26.20
2023-02-27T06:52:41.350Z,33.15
2023-02-27T06:55:09.334Z,23.60
2023-02-27T06:57:36.226Z,24.23
2023-02-27T07:00:04.347Z,34.45
2023-02-27T07:02:32.822Z,34.30
2023-02-27T07:04:59.344Z,35.97
2023-02-27T07:07:33.939Z,36.95
2023-02-27T07:10:08.989Z,31.33
2023-02-27T07:12:35.463Z,32.03
2023-02-27T07:15:01.911Z,28.38
2023-02-27T07:17:28.416Z,28.98
2023-02-27T07:19:54.826Z,30.95
2023-02-27T07:22:21.309Z,26.80
2023-02-27T07:24:47.757Z,26.85
2023-02-27T07:27:14.161Z,26.02
2023-02-27T07:29:40.564Z,37.83
2023-02-27T07:32:07.055Z,26.75
2023-02-27T07:34:33.493Z,37.03
2023-02-27T07:37:00.052Z,27.70
2023-02-27T07:39:26.492Z,29.42
2023-02-27T07:41:52.983Z,29.38
2023-02-27T07:44:19.526Z,30.77
2023-02-27T07:46:47.327Z,30.38
2023-02-27T07:49:14.077Z,27.45
2023-02-27T07:51:40.526Z,30.88
2023-02-27T07:54:06.980Z,23.85
2023-02-27T07:56:33.470Z,24.65
2023-02-27T07:58:59.931Z,30.85
2023-02-27T08:01:26.617Z,24.23
2023-02-27T08:03:53.094Z,27.25
2023-02-27T08:06:19.504Z,28.85
2023-02-27T08:11:28.394Z,24.42
2023-02-27T08:14:00.607Z,29.02
2023-02-27T08:16:28.536Z,29.67
2023-02-27T08:18:55.381Z,26.65
2023-02-27T08:21:22.167Z,28.60
2023-02-27T08:23:48.674Z,30.20
2023-02-27T08:26:15.318Z,23.75
2023-02-27T08:28:41.735Z,25.17
2023-02-27T08:31:08.258Z,26.65
2023-02-27T08:33:34.837Z,31.00
2023-02-27T08:36:01.790Z,29.65
2023-02-27T08:38:28.474Z,28.38
2023-02-27T08:40:55.219Z,26.42
2023-02-27T08:43:23.198Z,29.90
2023-02-27T08:45:50.333Z,28.35
2023-02-27T08:48:18.470Z,28.10
2023-02-27T08:50:45.291Z,26.58
2023-02-27T08:53:12.433Z,30.02
2023-02-27T08:55:38.883Z,28.70
2023-02-27T08:58:05.324Z,32.53
2023-02-27T09:00:32.813Z,29.05
2023-02-27T09:03:00.565Z,28.05
2023-02-27T09:05:27.778Z,24.10
2023-02-27T09:07:54.222Z,27.35
2023-02-27T09:10:20.632Z,26.30
2023-02-27T09:12:49.142Z,26.73
2023-02-27T09:15:15.709Z,29.17
2023-02-27T09:17:42.297Z,23.30
2023-02-27T09:20:10.651Z,28.00
2023-02-27T09:22:37.405Z,22.45
2023-02-27T09:25:04.341Z,27.20
2023-02-27T09:27:30.792Z,21.92
2023-02-27T09:29:57.381Z,21.77
2023-02-27T09:32:24.785Z,27.05
2023-02-27T09:34:51.649Z,21.00
2023-02-27T09:37:21.400Z,21.23
2023-02-27T09:39:47.873Z,23.35
2023-02-27T09:42:28.754Z,20.02
2023-02-27T09:45:05.502Z,21.40
2023-02-27T09:47:42.118Z,19.67
2023-02-27T09:50:31.545Z,17.92
2023-02-27T09:52:59.398Z,18.60
2023-02-27T09:55:30.254Z,17.42
2023-02-27T09:58:31.053Z,17.77
2023-02-27T10:01:09.395Z,15.40
2023-02-27T10:03:57.755Z,14.32
2023-02-27T10:06:36.994Z,14.88
2023-02-27T10:09:42.681Z,14.02
2023-02-27T10:12:15.329Z,16.20
2023-02-27T10:14:52.116Z,13.55
2023-02-27T10:17:27.800Z,11.07
2023-02-27T10:19:55.289Z,13.43
2023-02-27T10:22:28.602Z,13.25
2023-02-27T10:25:02.352Z,11.82
2023-02-27T10:27:30.842Z,12.55
2023-02-27T10:30:27.258Z,11.10
2023-02-27T10:33:08.887Z,12.70
2023-02-27T10:35:38.918Z,11.60
2023-02-27T10:38:16.711Z,14.57
2023-02-27T10:40:45.399Z,11.40
2023-02-27T10:43:16.356Z,11.48
2023-02-27T10:45:43.841Z,11.25
2023-02-27T10:48:11.882Z,14.20
2023-02-27T10:50:44.288Z,12.35
2023-02-27T10:53:21.736Z,13.75
2023-02-27T10:56:02.942Z,17.17
2023-02-27T10:58:40.674Z,18.05
2023-02-27T11:01:10.625Z,12.20
2023-02-27T11:03:41.458Z,12.48
2023-02-27T11:06:30.122Z,14.02
2023-02-27T11:09:20.998Z,16.85
2023-02-27T11:11:47.694Z,14.25
2023-02-27T11:14:27.986Z,14.70
2023-02-27T11:19:39.024Z,15.23
2023-02-27T11:22:20.176Z,16.77
2023-02-27T11:24:48.182Z,12.75
2023-02-27T11:27:22.616Z,15.48
2023-02-27T11:30:04.782Z,14.27
2023-02-27T11:32:48.080Z,19.27
2023-02-27T11:35:38.881Z,19.58
2023-02-27T11:38:19.064Z,20.08
2023-02-27T11:40:54.242Z,15.75
2023-02-27T11:43:25.498Z,15.55
2023-02-27T11:46:04.602Z,16.50
2023-02-27T11:48:47.452Z,14.18
2023-02-27T11:51:54.864Z,17.17
2023-02-27T11:54:32.338Z,15.88
2023-02-27T11:57:04.652Z,16.83
2023-02-27T11:59:31.737Z,14.90
2023-02-27T12:02:05.340Z,17.90
2023-02-27T12:04:50.138Z,14.02
2023-02-27T12:07:38.624Z,15.73
2023-02-27T12:10:10.038Z,18.27
2023-02-27T12:12:45.652Z,12.18
2023-02-27T12:15:51.173Z,12.05
2023-02-27T12:18:30.461Z,15.80
2023-02-27T12:21:06.214Z,13.23
2023-02-27T12:23:41.551Z,12.20
2023-02-27T12:26:17.596Z,11.88
2023-02-27T12:29:02.228Z,17.55
2023-02-27T12:31:32.516Z,12.70
2023-02-27T12:34:25.927Z,14.27
2023-02-27T12:36:53.323Z,13.52
2023-02-27T12:39:22.905Z,13.55
2023-02-27T12:42:15.645Z,12.65
2023-02-27T12:45:03.510Z,14.93
2023-02-27T12:47:32.837Z,12.90
2023-02-27T12:50:20.638Z,13.50
2023-02-27T12:53:14.851Z,12.25
2023-02-27T12:55:47.269Z,14.77
2023-02-27T12:58:16.686Z,11.73
2023-02-27T13:00:48.074Z,11.60
2023-02-27T13:03:22.157Z,11.80
2023-02-27T13:06:03.388Z,13.50
2023-02-27T13:08:55.081Z,11.57
2023-02-27T13:11:39.621Z,11.45
2023-02-27T13:14:11.864Z,11.90
2023-02-27T13:16:46.035Z,12.95
2023-02-27T13:19:23.934Z,13.20
2023-02-27T13:22:04.070Z,11.75
2023-02-27T13:24:32.228Z,11.82
2023-02-27T13:27:11.749Z,11.95
2023-02-27T13:29:41.350Z,11.98
2023-02-27T13:32:44.238Z,13.18
2023-02-27T13:35:32.982Z,12.35
2023-02-27T13:38:03.474Z,11.27
2023-02-27T13:40:39.840Z,13.27
2023-02-27T13:43:26.213Z,13.18
2023-02-27T13:45:55.018Z,11.68
2023-02-27T13:48:33.414Z,11.40
2023-02-27T13:51:01.126Z,12.13
2023-02-27T13:53:28.893Z,11.68
2023-02-27T13:56:00.024Z,11.30
2023-02-27T13:58:26.583Z,11.57
2023-02-27T14:00:59.893Z,11.20
2023-02-27T14:03:30.475Z,12.30
2023-02-27T14:06:01.100Z,12.68
2023-02-27T14:08:46.654Z,12.02
2023-02-27T14:11:20.766Z,11.48
2023-02-27T14:13:50.221Z,13.32
2023-02-27T14:16:39.038Z,12.27
2023-02-27T14:19:11.175Z,12.23
2023-02-27T14:21:52.622Z,13.65
2023-02-27T14:24:23.428Z,11.60
2023-02-27T14:26:52.240Z,13.60
2023-02-27T14:29:30.848Z,11.23
2023-02-27T14:32:00.847Z,12.23
2023-02-27T14:34:28.482Z,12.15
2023-02-27T14:36:59.668Z,12.25
2023-02-27T14:39:37.214Z,12.88
2023-02-27T14:42:06.758Z,11.73
2023-02-27T14:44:45.500Z,12.05
2023-02-27T14:47:23.997Z,12.13
2023-02-27T14:49:50.430Z,12.90
2023-02-27T14:52:29.765Z,12.15
2023-02-27T14:55:30.179Z,11.87
2023-02-27T14:58:14.633Z,11.93
2023-02-27T15:00:42.546Z,13.45
2023-02-27T15:03:17.828Z,11.63
2023-02-27T15:05:45.499Z,12.50
2023-02-27T15:08:34.789Z,12.20
2023-02-27T15:11:02.482Z,12.43
2023-02-27T15:13:32.104Z,12.13
2023-02-27T15:16:21.684Z,12.65
2023-02-27T15:18:52.954Z,12.15
2023-02-27T15:21:21.972Z,11.35
2023-02-27T15:23:57.512Z,12.05
2023-02-27T15:26:24.992Z,15.23
2023-02-27T15:28:51.713Z,12.32
2023-02-27T15:31:22.577Z,12.60
2023-02-27T15:33:50.510Z,15.48
2023-02-27T15:36:21.827Z,12.80
2023-02-27T15:39:19.415Z,14.63
2023-02-27T15:41:58.980Z,13.73
2023-02-27T15:44:42.411Z,18.85
2023-02-27T15:47:12.922Z,15.45
2023-02-27T15:49:39.560Z,14.70
2023-02-27T15:52:17.314Z,17.27
2023-02-27T15:54:51.707Z,14.30
2023-02-27T15:57:20.728Z,13.68
2023-02-27T15:59:47.408Z,16.63
2023-02-27T16:02:23.326Z,14.63
2023-02-27T16:04:50.406Z,15.00
2023-02-27T16:07:22.943Z,15.07
2023-02-27T16:10:06.241Z,15.85
2023-02-27T16:12:37.119Z,14.82
2023-02-27T16:15:24.526Z,16.27
2023-02-27T16:17:54.508Z,13.63
2023-02-27T16:20:30.424Z,15.23
2023-02-27T16:23:16.002Z,14.52
2023-02-27T16:25:58.971Z,13.85
2023-02-27T16:28:31.551Z,16.25
2023-02-27T16:30:58.211Z,14.70
2023-02-27T16:33:30.269Z,18.60
2023-02-27T16:36:19.706Z,14.38
2023-02-27T16:38:46.626Z,17.77
2023-02-27T16:41:17.193Z,21.17
2023-02-27T16:43:46.157Z,16.42
2023-02-27T16:46:19.925Z,17.45
2023-02-27T16:49:00.735Z,17.33
2023-02-27T16:51:34.583Z,17.98
2023-02-27T16:54:01.083Z,18.63
2023-02-27T16:56:37.660Z,15.05
2023-02-27T16:59:04.413Z,18.15
2023-02-27T17:01:33.005Z,16.73
2023-02-27T17:04:00.478Z,15.40
2023-02-27T17:06:27.478Z,14.18
2023-02-27T17:08:56.285Z,18.10
2023-02-27T17:11:22.805Z,16.58
2023-02-27T17:13:49.244Z,16.00
2023-02-27T17:16:15.949Z,17.88
2023-02-27T17:18:42.437Z,14.05
2023-02-27T17:21:08.936Z,19.85
2023-02-27T17:23:35.335Z,17.02
2023-02-27T17:26:01.752Z,20.15
2023-02-27T17:28:31.275Z,16.30
2023-02-27T17:30:58.002Z,18.45
2023-02-27T17:33:24.449Z,21.38
2023-02-27T17:35:52.878Z,18.55
2023-02-27T17:38:19.348Z,18.65
2023-02-27T17:40:45.864Z,24.67
2023-02-27T17:43:12.396Z,16.50
2023-02-27T17:45:38.908Z,16.20
2023-02-27T17:48:05.621Z,22.75
2023-02-27T17:50:32.417Z,22.95
2023-02-27T17:52:58.832Z,24.55
2023-02-27T17:55:25.338Z,22.85
2023-02-27T17:57:51.950Z,25.60
2023-02-27T18:00:18.799Z,26.05
2023-02-27T18:02:45.410Z,20.67
2023-02-27T18:05:12.083Z,21.58
2023-02-27T18:07:38.945Z,19.77
2023-02-27T18:10:06.966Z,21.67
2023-02-27T18:12:33.955Z,20.52
2023-02-27T18:15:00.962Z,20.88
2023-02-27T18:17:27.988Z,21.23
2023-02-27T18:19:54.475Z,20.85
2023-02-27T18:22:22.047Z,20.65
2023-02-27T18:24:49.384Z,29.98
2023-02-27T18:27:15.823Z,27.52
2023-02-27T18:29:43.744Z,27.27
2023-02-27T18:32:10.502Z,31.70
2023-02-27T18:34:38.902Z,41.55
2023-02-27T18:37:05.285Z,30.83
2023-02-27T18:39:31.730Z,33.22
2023-02-27T18:41:58.490Z,26.73
2023-02-27T18:44:25.089Z,26.13
2023-02-27T18:46:51.635Z,34.75
2023-02-27T18:49:18.056Z,25.17
2023-02-27T18:51:44.450Z,33.03
2023-02-27T18:54:13.524Z,32.80
2023-02-27T18:56:40.631Z,30.35
2023-02-27T18:59:07.592Z,26.10
2023-02-27T19:01:36.934Z,25.50
2023-02-27T19:04:05.894Z,28.30
2023-02-27T19:06:34.605Z,28.95
2023-02-27T19:09:01.235Z,25.73
2023-02-27T19:11:33.798Z,27.80
2023-02-27T19:14:02.593Z,24.42
2023-02-27T19:16:30.615Z,23.95
2023-02-27T19:18:58.849Z,22.48
2023-02-27T19:21:26.824Z,28.15
2023-02-27T19:23:53.765Z,27.35
2023-02-27T19:26:21.500Z,29.20
2023-02-27T19:28:53.809Z,22.00
2023-02-27T19:31:22.389Z,22.77
2023-02-27T19:33:49.082Z,21.00
2023-02-27T19:36:18.202Z,19.23
2023-02-27T19:38:44.678Z,18.73
2023-02-27T19:41:13.974Z,23.83
2023-02-27T19:43:41.315Z,19.60
2023-02-27T19:46:10.960Z,20.38
2023-02-27T19:48:38.317Z,25.38
2023-02-27T19:51:07.142Z,16.73
2023-02-27T19:53:35.820Z,23.85
2023-02-27T19:56:04.836Z,19.83
2023-02-27T19:58:31.758Z,18.15
2023-02-27T20:01:00.773Z,23.10
2023-02-27T20:03:29.090Z,18.98
2023-02-27T20:05:56.462Z,18.02
2023-02-27T20:08:23.360Z,19.25
2023-02-27T20:11:08.135Z,21.00
2023-02-27T20:13:34.612Z,17.00
2023-02-27T20:16:08.051Z,20.73
2023-02-27T20:18:36.076Z,21.95
2023-02-27T20:21:04.052Z,23.88
2023-02-27T20:23:31.698Z,21.90
2023-02-27T20:25:58.602Z,22.80
2023-02-27T20:28:25.199Z,22.83
2023-02-27T20:30:52.173Z,17.52
2023-02-27T20:33:18.900Z,20.83
2023-02-27T20:35:45.749Z,22.58
2023-02-27T20:38:12.416Z,23.58
2023-02-27T20:40:38.784Z,14.80
2023-02-27T20:43:05.359Z,20.05
2023-02-27T20:45:31.835Z,18.42
2023-02-27T20:47:58.497Z,16.52
2023-02-27T20:50:24.887Z,17.25
2023-02-27T20:52:54.009Z,21.17
2023-02-27T20:55:20.722Z,25.40
2023-02-27T20:57:47.246Z,21.20
2023-02-27T21:00:15.804Z,21.13
2023-02-27T21:02:42.423Z,22.33
2023-02-27T21:05:09.210Z,26.67
2023-02-27T21:07:35.955Z,21.15
2023-02-27T21:10:02.470Z,19.83
2023-02-27T21:12:28.969Z,20.70
2023-02-27T21:14:56.008Z,22.13
2023-02-27T21:17:24.846Z,19.67
2023-02-27T21:19:51.796Z,19.42
2023-02-27T21:22:18.194Z,16.60
2023-02-27T21:24:46.465Z,23.90
2023-02-27T21:27:12.922Z,20.52
2023-02-27T21:29:39.314Z,21.65
2023-02-27T21:32:07.118Z,21.00
2023-02-27T21:34:33.586Z,21.02
2023-02-27T21:37:02.544Z,19.08
2023-02-27T21:39:29.118Z,27.05
2023-02-27T21:41:55.563Z,20.70
2023-02-27T21:44:26.179Z,22.80
2023-02-27T21:46:55.794Z,21.88
2023-02-27T21:49:28.391Z,25.55
2023-02-27T21:51:55.479Z,21.98
2023-02-27T21:54:22.579Z,19.00
2023-02-27T21:56:49.551Z,24.83
2023-02-27T21:59:17.283Z,30.50
2023-02-27T22:01:47.451Z,23.25
2023-02-27T22:06:40.914Z,20.13
2023-02-27T22:09:07.941Z,19.30
2023-02-27T22:11:35.128Z,18.98
2023-02-27T22:14:03.593Z,16.75
2023-02-27T22:16:30.072Z,25.88
2023-02-27T22:18:57.625Z,23.13
2023-02-27T22:21:25.968Z,20.35
2023-02-27T22:23:52.854Z,24.95
2023-02-27T22:26:23.952Z,20.40
2023-02-27T22:28:52.132Z,19.17
2023-02-27T22:31:23.318Z,22.63
2023-02-27T22:33:52.561Z,17.85
2023-02-27T22:36:21.818Z,22.20
2023-02-27T22:38:48.630Z,17.33
2023-02-27T22:41:26.214Z,25.73
2023-02-27T22:43:53.045Z,16.98
2023-02-27T22:46:31.747Z,19.92
2023-02-27T22:49:03.078Z,20.83
2023-02-27T22:51:31.046Z,14.57
2023-02-27T22:53:59.889Z,20.02
2023-02-27T22:56:26.415Z,17.63
2023-02-27T22:58:53.313Z,19.00
2023-02-27T23:01:25.386Z,20.27
2023-02-27T23:03:53.465Z,17.15
2023-02-27T23:06:23.626Z,19.15
2023-02-27T23:08:50.057Z,21.70
2023-02-27T23:11:18.050Z,18.65
2023-02-27T23:13:44.712Z,19.15
2023-02-27T23:16:13.536Z,17.73
2023-02-27T23:18:48.419Z,17.35
2023-02-27T23:21:20.897Z,29.15
2023-02-27T23:23:47.751Z,25.02
2023-02-27T23:26:14.282Z,20.20
2023-02-27T23:28:41.407Z,17.30
2023-02-27T23:31:09.246Z,15.90
2023-02-27T23:33:35.723Z,14.15
2023-02-27T23:36:02.742Z,15.82
2023-02-27T23:38:29.718Z,14.25
2023-02-27T23:40:56.589Z,12.35
2023-02-27T23:43:42.368Z,14.10
2023-02-27T23:46:11.249Z,13.35
2023-02-27T23:48:38.028Z,13.23
2023-02-27T23:51:06.204Z,12.57
2023-02-27T23:53:33.776Z,21.75
2023-02-27T23:56:00.279Z,13.13
2023-02-27T23:58:26.780Z,12.82
